Time;durP1;ratioP1;P1;durP2;ratioP2;P2;SDS_P1;SDS_P2;PMS_P1;PMS_P2;Temp;Humidity;BMP_temperature;BMP_pressure;BME280_temperature;BME280_humidity;BME280_pressure;Samples;Min_cycle;Max_cycle;Signal;HPM_P1;HPM_P2
2023/04/28 00:01:36;;;;;;;3.30;2.60;;;;;;;7.27;58.42;100946.16;4969426;28;20208;-70
2023/04/28 00:04:03;;;;;;;3.30;2.73;;;;;;;7.22;58.57;100936.69;4968929;28;20275;-70
2023/04/28 00:06:29;;;;;;;4.63;2.97;;;;;;;7.16;59.27;100943.13;4967510;28;20232;-70
2023/04/28 00:08:56;;;;;;;4.27;3.27;;;;;;;7.15;59.49;100936.13;4968654;28;20204;-71
2023/04/28 00:11:22;;;;;;;4.53;2.77;;;;;;;7.15;59.12;100941.41;4963521;28;20208;-70
2023/04/28 00:13:50;;;;;;;6.57;3.10;;;;;;;7.14;59.11;100934.41;4965424;28;20704;-67
2023/04/28 00:16:17;;;;;;;4.07;2.80;;;;;;;7.14;59.52;100928.25;4964417;28;20235;-70
2023/04/28 00:18:43;;;;;;;6.93;3.03;;;;;;;7.14;59.73;100930.88;4965318;28;20216;-70
2023/04/28 00:21:10;;;;;;;5.17;3.00;;;;;;;7.14;59.28;100934.41;4968017;28;20200;-71
2023/04/28 00:23:36;;;;;;;5.80;2.80;;;;;;;7.15;59.67;100930.81;4968955;28;20208;-70
2023/04/28 00:26:02;;;;;;;5.40;3.07;;;;;;;7.14;59.70;100918.50;4962854;28;20235;-70
2023/04/28 00:28:29;;;;;;;6.23;2.90;;;;;;;7.14;59.98;100917.66;4968542;28;20220;-67
2023/04/28 00:30:57;;;;;;;4.30;2.93;;;;;;;7.14;59.78;100909.69;4967880;28;20204;-70
2023/04/28 00:33:23;;;;;;;5.27;3.03;;;;;;;7.15;59.88;100908.78;4962385;28;20208;-70
2023/04/28 00:35:49;;;;;;;5.00;3.00;;;;;;;7.13;59.79;100903.53;4962686;28;20232;-71
2023/04/28 00:38:16;;;;;;;5.00;3.10;;;;;;;7.14;60.28;100901.75;4965947;28;20204;-68
2023/04/28 00:40:42;;;;;;;5.73;2.93;;;;;;;7.15;60.16;100908.78;4966907;28;20215;-73
2023/04/28 00:43:09;;;;;;;4.20;2.90;;;;;;;7.15;60.28;100906.13;4968812;28;20215;-70
2023/04/28 00:45:35;;;;;;;4.77;3.53;;;;;;;7.15;60.71;100900.81;4962588;28;20211;-69
2023/04/28 00:48:03;;;;;;;4.00;2.60;;;;;;;7.16;60.45;100903.41;4964173;28;20211;-70
2023/04/28 00:50:30;;;;;;;4.60;3.17;;;;;;;7.18;60.73;100903.31;4966080;28;20204;-70
2023/04/28 00:52:56;;;;;;;3.63;2.80;;;;;;;7.18;60.72;100901.53;4966394;28;20666;-70
2023/04/28 00:55:26;;;;;;;5.77;3.27;;;;;;;7.20;60.64;100904.97;4971903;28;20228;-70
2023/04/28 00:57:55;;;;;;;4.20;3.00;;;;;;;7.22;61.20;100892.50;4967260;28;20224;-71
2023/04/28 01:00:22;;;;;;;4.33;3.40;;;;;;;7.23;61.08;100896.03;4967607;28;20208;-73
2023/04/28 01:02:50;;;;;;;6.33;3.00;;;;;;;7.24;61.57;100887.16;4963643;28;20240;-71
2023/04/28 01:05:18;;;;;;;3.37;2.50;;;;;;;7.24;60.83;100889.78;4967592;28;20721;-70
2023/04/28 01:07:44;;;;;;;5.43;3.10;;;;;;;7.25;60.91;100894.16;4968684;28;20228;-68
2023/04/28 01:10:11;;;;;;;4.87;3.00;;;;;;;7.24;61.27;100885.34;4969948;28;20204;-71
2023/04/28 01:12:37;;;;;;;4.90;3.20;;;;;;;7.24;61.27;100885.34;4968247;28;20295;-70
2023/04/28 01:15:05;;;;;;;6.40;2.80;;;;;;;7.25;61.09;100879.13;4968629;28;20246;-71
2023/04/28 01:17:31;;;;;;;5.00;3.23;;;;;;;7.25;61.53;100878.28;4973918;28;20231;-71
2023/04/28 01:19:58;;;;;;;4.40;2.97;;;;;;;7.26;60.88;100872.03;4973183;28;20208;-72
2023/04/28 01:22:25;;;;;;;6.47;3.27;;;;;;;7.26;61.58;100872.91;4966710;28;20211;-71
2023/04/28 01:24:53;;;;;;;4.90;3.20;;;;;;;7.28;61.16;100875.50;4968109;28;20208;-71
2023/04/28 01:27:20;;;;;;;4.40;3.13;;;;;;;7.28;60.92;100872.84;4967353;28;20806;-72
2023/04/28 01:29:46;;;;;;;5.47;2.97;;;;;;;7.29;60.69;100877.22;4967501;28;20589;-70
2023/04/28 01:32:12;;;;;;;4.50;2.93;;;;;;;7.29;60.75;100879.84;4966274;28;20211;-70
2023/04/28 01:34:39;;;;;;;4.30;3.30;;;;;;;7.28;60.77;100870.19;4964842;28;20212;-71
2023/04/28 01:37:05;;;;;;;4.27;3.13;;;;;;;7.28;60.82;100867.53;4966042;28;20235;-71
2023/04/28 01:39:32;;;;;;;7.80;3.70;;;;;;;7.26;60.96;100867.59;4961714;28;20204;-70
2023/04/28 01:42:01;;;;;;;5.47;3.63;;;;;;;7.26;61.43;100859.66;4966880;28;20212;-69
2023/04/28 01:44:27;;;;;;;5.67;3.20;;;;;;;7.28;61.41;100854.28;4962883;28;20209;-71
2023/04/28 01:46:55;;;;;;;4.87;3.30;;;;;;;7.28;61.51;100852.50;4968432;28;20227;-70
2023/04/28 01:49:22;;;;;;;5.33;3.33;;;;;;;7.27;61.65;100857.88;4970263;28;20214;-70
2023/04/28 01:51:49;;;;;;;5.50;3.63;;;;;;;7.23;61.67;100851.00;4970576;28;20208;-72
2023/04/28 01:54:15;;;;;;;5.63;3.57;;;;;;;7.21;62.32;100850.19;4970782;28;20224;-70
2023/04/28 01:56:42;;;;;;;3.57;3.13;;;;;;;7.17;61.83;100841.53;4967664;28;20232;-71
2023/04/28 01:59:12;;;;;;;8.20;3.50;;;;;;;7.15;62.91;100839.91;4972346;28;20234;-71
2023/04/28 02:01:39;;;;;;;3.40;3.10;;;;;;;7.12;62.31;100838.25;4970385;28;20649;-71
2023/04/28 02:04:05;;;;;;;4.47;3.60;;;;;;;7.09;62.87;100827.78;4963574;28;20250;-71
2023/04/28 02:06:31;;;;;;;5.23;4.00;;;;;;;7.10;63.47;100826.88;4970983;28;20271;-71
2023/04/28 02:08:58;;;;;;;4.80;3.07;;;;;;;7.11;63.63;100828.59;4969790;28;20216;-70
2023/04/28 02:11:24;;;;;;;5.50;3.83;;;;;;;7.10;63.53;100821.56;4965180;28;20223;-70
2023/04/28 02:13:51;;;;;;;8.77;3.90;;;;;;;7.09;63.52;100819.00;4967123;28;20212;-71
2023/04/28 02:16:18;;;;;;;4.97;3.27;;;;;;;7.07;63.83;100815.56;4971369;28;20234;-70
2023/04/28 02:18:45;;;;;;;6.87;4.03;;;;;;;7.05;63.88;100820.06;4969567;28;20215;-70
2023/04/28 02:21:12;;;;;;;5.50;3.70;;;;;;;7.02;63.91;100817.53;4969218;28;20200;-70
2023/04/28 02:23:39;;;;;;;6.33;4.10;;;;;;;6.99;64.16;100818.53;4968091;28;20581;-70
2023/04/28 02:26:06;;;;;;;5.17;3.70;;;;;;;6.99;64.59;100820.34;4971424;28;20236;-71
2023/04/28 02:28:32;;;;;;;7.13;4.03;;;;;;;6.97;65.16;100812.47;4970693;28;20698;-71
2023/04/28 02:31:06;;;;;;;6.10;3.67;;;;;;;6.97;65.31;100807.19;4971160;28;20219;-71
2023/04/28 02:33:34;;;;;;;4.27;3.80;;;;;;;6.95;64.84;100807.25;4969365;28;20595;-71
2023/04/28 02:36:01;;;;;;;7.63;4.03;;;;;;;6.92;64.46;100802.09;4966691;28;20235;-71
2023/04/28 02:38:27;;;;;;;7.17;3.53;;;;;;;6.90;64.39;100792.50;4970874;28;20208;-70
2023/04/28 02:40:58;;;;;;;4.63;3.80;;;;;;;6.89;64.27;100786.34;4971107;28;20208;-69
2023/04/28 02:43:25;;;;;;;5.00;3.70;;;;;;;6.87;64.55;100774.97;4968373;28;20689;-70
2023/04/28 02:45:51;;;;;;;10.27;4.23;;;;;;;6.86;64.35;100781.19;4967266;28;20224;-71
2023/04/28 02:48:17;;;;;;;8.47;4.10;;;;;;;6.85;64.38;100774.16;4968894;28;20771;-70
2023/04/28 02:50:45;;;;;;;5.17;4.07;;;;;;;6.84;64.54;100775.09;4976161;28;20208;-68
2023/04/28 02:53:12;;;;;;;6.47;4.00;;;;;;;6.84;64.71;100777.75;4970902;28;20700;-71
2023/04/28 02:55:39;;;;;;;5.30;3.83;;;;;;;6.83;64.08;100778.66;4969933;28;20205;-71
2023/04/28 02:58:05;;;;;;;6.50;4.20;;;;;;;6.83;64.33;100778.66;4969251;28;20216;-69
2023/04/28 03:00:32;;;;;;;5.53;3.80;;;;;;;6.83;64.33;100775.16;4970596;28;20846;-71
2023/04/28 03:02:58;;;;;;;5.47;3.83;;;;;;;6.82;64.05;100766.38;4969726;28;20670;-71
2023/04/28 03:05:25;;;;;;;7.13;4.07;;;;;;;6.82;64.10;100771.66;4972493;28;20204;-70
2023/04/28 03:07:52;;;;;;;10.10;4.10;;;;;;;6.81;63.87;100762.00;4974051;28;20750;-72
2023/04/28 03:10:19;;;;;;;5.70;4.10;;;;;;;6.80;64.13;100760.31;4970760;28;20570;-70
2023/04/28 03:12:46;;;;;;;5.70;3.67;;;;;;;6.78;63.65;100756.88;4974217;28;20543;-73
2023/04/28 03:15:12;;;;;;;6.57;3.90;;;;;;;6.77;63.97;100755.16;4973528;28;20208;-71
2023/04/28 03:17:40;;;;;;;4.30;3.90;;;;;;;6.76;64.15;100748.13;4969350;28;20237;-70
2023/04/28 03:20:08;;;;;;;5.57;3.90;;;;;;;6.75;64.06;100750.84;4970064;28;20437;-73
2023/04/28 03:22:35;;;;;;;6.30;4.43;;;;;;;6.70;63.53;100751.06;4981135;23;20230;-86
2023/04/28 03:25:04;;;;;;;4.73;3.83;;;;;;;6.68;63.74;100747.63;4994792;28;20211;-86
2023/04/28 03:27:30;;;;;;;6.87;4.00;;;;;;;6.65;63.84;100749.53;4991184;28;20204;-86
2023/04/28 03:29:57;;;;;;;4.87;3.70;;;;;;;6.60;63.59;100740.03;4990591;28;20573;-86
2023/04/28 03:32:23;;;;;;;5.30;4.13;;;;;;;6.59;64.11;100734.81;4992978;28;20208;-85
2023/04/28 03:34:50;;;;;;;8.97;4.27;;;;;;;6.55;64.09;100733.22;4990784;28;20200;-86
2023/04/28 03:37:16;;;;;;;5.30;3.73;;;;;;;6.54;64.25;100736.81;4994618;28;20286;-86
2023/04/28 03:39:43;;;;;;;4.27;3.87;;;;;;;6.52;64.43;100739.50;4997030;28;20214;-85
2023/04/28 03:42:11;;;;;;;4.83;3.77;;;;;;;6.49;64.32;100738.78;4987863;28;20210;-86
2023/04/28 03:44:37;;;;;;;6.77;4.10;;;;;;;6.44;64.59;100725.78;5001166;28;20278;-86
2023/04/28 03:47:04;;;;;;;10.27;4.53;;;;;;;6.39;64.57;100719.84;4990317;28;20230;-86
2023/04/28 03:49:31;;;;;;;5.03;3.60;;;;;;;6.35;64.99;100722.69;4994081;28;20291;-85
2023/04/28 03:51:57;;;;;;;5.00;3.50;;;;;;;6.33;65.11;100716.59;4993334;28;20208;-86
2023/04/28 03:54:24;;;;;;;6.47;4.00;;;;;;;6.30;65.15;100727.31;4991266;28;20763;-86
2023/04/28 03:56:50;;;;;;;4.93;3.73;;;;;;;6.26;65.47;100716.91;4995012;28;20235;-85
2023/04/28 03:59:18;;;;;;;5.07;4.30;;;;;;;6.25;65.36;100720.47;5000289;28;20569;-85
2023/04/28 04:01:45;;;;;;;7.90;3.97;;;;;;;6.21;65.79;100721.53;4996583;28;20203;-85
2023/04/28 04:04:11;;;;;;;6.07;3.80;;;;;;;6.20;65.78;100717.16;4993398;28;20234;-85
2023/04/28 04:06:38;;;;;;;5.77;4.43;;;;;;;6.19;66.20;100715.44;4990529;28;20223;-85
2023/04/28 04:09:04;;;;;;;4.83;3.47;;;;;;;6.16;65.95;100705.00;4992027;28;20207;-86
2023/04/28 04:11:31;;;;;;;4.57;4.17;;;;;;;6.17;66.06;100711.13;4990105;28;20208;-85
2023/04/28 04:13:57;;;;;;;6.80;3.97;;;;;;;6.14;66.02;100712.13;4990515;28;20759;-85
2023/04/28 04:16:25;;;;;;;5.73;3.87;;;;;;;6.12;66.04;100698.09;4998713;28;20638;-86
2023/04/28 04:18:52;;;;;;;6.50;4.43;;;;;;;6.10;66.01;100697.31;4992652;28;20200;-85
2023/04/28 04:21:18;;;;;;;5.93;4.07;;;;;;;6.07;66.16;100694.84;4993341;28;20207;-86
2023/04/28 04:23:45;;;;;;;5.50;4.00;;;;;;;6.06;66.69;100698.41;4995648;28;20216;-85
2023/04/28 04:26:11;;;;;;;7.13;4.40;;;;;;;6.04;66.46;100696.75;4998895;28;20231;-85
2023/04/28 04:28:37;;;;;;;6.33;4.10;;;;;;;6.03;66.63;100695.03;4995677;28;20207;-86
2023/04/28 04:31:04;;;;;;;6.30;4.90;;;;;;;6.02;66.75;100699.47;4992530;28;20212;-84
2023/04/28 04:33:33;;;;;;;5.20;4.13;;;;;;;6.04;66.56;100699.38;4997831;28;20215;-84
2023/04/28 04:36:00;;;;;;;8.10;4.40;;;;;;;6.06;66.76;100692.25;4990732;28;20314;-84
2023/04/28 04:38:26;;;;;;;5.70;4.07;;;;;;;6.04;66.76;100694.97;4992867;28;20204;-85
2023/04/28 04:40:52;;;;;;;6.50;4.30;;;;;;;6.05;66.82;100683.47;4994168;28;20207;-85
2023/04/28 04:43:20;;;;;;;5.33;3.90;;;;;;;6.05;66.82;100688.75;4993972;28;20211;-83
2023/04/28 04:45:46;;;;;;;7.10;4.20;;;;;;;6.06;67.01;100684.31;4991530;28;20230;-84
2023/04/28 04:48:13;;;;;;;5.83;4.53;;;;;;;6.05;66.98;100691.41;4991847;28;20208;-85
2023/04/28 04:50:41;;;;;;;7.60;4.70;;;;;;;6.08;67.02;100693.91;4989379;28;20207;-85
2023/04/28 04:53:07;;;;;;;11.97;4.50;;;;;;;6.09;67.26;100698.25;4997844;28;20208;-84
2023/04/28 04:55:34;;;;;;;5.90;4.20;;;;;;;6.10;67.22;100693.81;4988004;28;20227;-86
2023/04/28 04:58:01;;;;;;;8.37;4.93;;;;;;;6.12;67.54;100697.25;4996365;28;20253;-85
2023/04/28 05:00:28;;;;;;;10.37;4.53;;;;;;;6.13;67.39;100694.53;4991533;28;20207;-86
2023/04/28 05:02:54;;;;;;;6.77;4.57;;;;;;;6.14;67.40;100690.97;4995523;28;20307;-85
2023/04/28 05:05:21;;;;;;;7.03;5.00;;;;;;;6.19;67.43;100688.13;4989614;28;20207;-85
2023/04/28 05:07:49;;;;;;;7.73;4.53;;;;;;;6.18;67.39;100674.06;4991871;28;20207;-85
2023/04/28 05:10:15;;;;;;;7.67;4.87;;;;;;;6.20;67.34;100674.84;4991943;28;21716;-86
2023/04/28 05:12:43;;;;;;;5.83;4.50;;;;;;;6.23;67.59;100685.28;4999807;28;20210;-86
2023/04/28 05:15:10;;;;;;;9.47;5.27;;;;;;;6.24;67.64;100676.44;4999263;28;20222;-85
2023/04/28 05:17:37;;;;;;;9.23;4.73;;;;;;;6.26;68.01;100668.44;4991064;28;20229;-85
2023/04/28 05:20:03;;;;;;;7.50;4.93;;;;;;;6.27;67.85;100665.69;4998618;28;20222;-85
2023/04/28 05:22:30;;;;;;;7.60;4.70;;;;;;;6.28;67.77;100664.75;4993714;28;20562;-85
2023/04/28 05:24:58;;;;;;;8.13;5.10;;;;;;;6.31;68.42;100660.25;4993197;28;20253;-85
2023/04/28 05:27:25;;;;;;;11.57;4.70;;;;;;;6.33;68.78;100669.00;4994176;28;20224;-86
2023/04/28 05:29:51;;;;;;;6.27;4.93;;;;;;;6.35;68.75;100672.44;4995540;28;20729;-86
2023/04/28 05:32:17;;;;;;;7.60;5.03;;;;;;;6.38;69.49;100659.94;4991681;28;20203;-86
2023/04/28 05:34:44;;;;;;;8.20;5.27;;;;;;;6.42;69.72;100661.50;4992671;28;20212;-86
2023/04/28 05:37:10;;;;;;;6.67;5.47;;;;;;;6.48;70.00;100663.84;4993613;28;20232;-86
2023/04/28 05:39:37;;;;;;;7.83;5.37;;;;;;;6.53;70.38;100664.50;4998917;28;20200;-87
2023/04/28 05:42:05;;;;;;;5.47;4.50;;;;;;;6.58;70.72;100662.50;4991517;28;20298;-86
2023/04/28 05:44:32;;;;;;;7.60;5.27;;;;;;;6.63;70.63;100663.13;4993637;28;20606;-85
2023/04/28 05:46:58;;;;;;;7.43;5.40;;;;;;;6.67;70.72;100655.91;5000524;28;20237;-86
2023/04/28 05:49:25;;;;;;;8.53;5.70;;;;;;;6.71;70.98;100652.19;4993162;28;20200;-86
2023/04/28 05:51:51;;;;;;;7.50;4.87;;;;;;;6.77;70.56;100651.06;4995452;28;20666;-86
2023/04/28 05:54:18;;;;;;;8.67;5.57;;;;;;;6.81;70.54;100652.59;4993835;28;20211;-86
2023/04/28 05:56:44;;;;;;;10.10;5.53;;;;;;;6.85;70.32;100651.53;4997154;28;20247;-86
2023/04/28 05:59:12;;;;;;;11.57;6.00;;;;;;;6.87;70.33;100645.25;4993866;28;20211;-87
2023/04/28 06:01:39;;;;;;;9.53;5.13;;;;;;;6.92;69.96;100635.28;4987086;28;20201;-86
2023/04/28 06:04:05;;;;;;;9.10;5.00;;;;;;;6.95;69.76;100632.50;4993449;28;20208;-85
2023/04/28 06:06:32;;;;;;;9.43;4.87;;;;;;;7.00;69.42;100629.59;4994910;28;20219;-86
2023/04/28 06:08:59;;;;;;;10.10;5.27;;;;;;;7.06;69.15;100633.75;4993307;28;20875;-86
2023/04/28 06:11:25;;;;;;;8.47;5.03;;;;;;;7.11;69.16;100626.44;4995669;28;20654;-85
2023/04/28 06:13:52;;;;;;;9.80;5.10;;;;;;;7.17;68.90;100621.69;4991444;28;20215;-86
2023/04/28 06:16:22;;;;;;;7.47;5.57;;;;;;;7.22;68.63;100618.81;4995551;28;20227;-85
2023/04/28 06:18:48;;;;;;;11.67;6.13;;;;;;;7.28;68.70;100634.41;4995225;28;20307;-86
2023/04/28 06:21:16;;;;;;;9.40;5.00;;;;;;;7.33;68.58;100624.44;4990210;28;20204;-86
2023/04/28 06:23:42;;;;;;;9.80;5.43;;;;;;;7.39;68.82;100626.78;4993791;28;20219;-86
2023/04/28 06:26:09;;;;;;;11.87;5.60;;;;;;;7.44;68.53;100624.75;4992036;28;20235;-87
2023/04/28 06:28:36;;;;;;;8.60;5.63;;;;;;;7.50;68.85;100624.47;4995156;28;20207;-85
2023/04/28 06:31:02;;;;;;;8.03;5.60;;;;;;;7.56;68.91;100624.13;4988960;28;20242;-85
2023/04/28 06:33:30;;;;;;;7.03;5.63;;;;;;;7.65;68.44;100606.91;4988785;28;20204;-86
2023/04/28 06:35:56;;;;;;;7.83;6.00;;;;;;;7.73;68.87;100619.75;5006447;28;20243;-85
2023/04/28 06:38:23;;;;;;;7.33;5.40;;;;;;;7.79;68.44;100612.34;5002778;28;20224;-85
2023/04/28 06:40:50;;;;;;;8.20;5.60;;;;;;;7.85;67.73;100622.63;5004080;28;20788;-85
2023/04/28 06:43:16;;;;;;;8.27;5.80;;;;;;;7.92;68.25;100624.00;4994977;28;20207;-86
2023/04/28 06:45:43;;;;;;;8.10;5.63;;;;;;;8.02;68.51;100635.00;4996671;28;20220;-85
2023/04/28 06:48:10;;;;;;;9.53;5.60;;;;;;;8.12;67.97;100638.00;5002414;28;20215;-85
2023/04/28 06:50:38;;;;;;;6.73;5.37;;;;;;;8.20;68.27;100644.63;4997535;28;20292;-86
2023/04/28 06:53:04;;;;;;;8.53;5.17;;;;;;;8.25;66.81;100639.91;5001496;28;20203;-85
2023/04/28 06:55:31;;;;;;;9.60;5.30;;;;;;;8.32;66.54;100633.38;5003118;28;20227;-85
2023/04/28 06:57:57;;;;;;;9.77;5.47;;;;;;;8.37;66.07;100633.13;4995503;28;20226;-85
2023/04/28 07:00:24;;;;;;;10.23;6.00;;;;;;;8.42;65.55;100627.59;4996321;28;20214;-85
2023/04/28 07:02:51;;;;;;;13.23;6.33;;;;;;;8.48;65.13;100620.13;4995925;28;20696;-86
2023/04/28 07:05:17;;;;;;;11.40;6.50;;;;;;;8.58;65.03;100623.16;4995515;28;20225;-85
2023/04/28 07:07:45;;;;;;;7.00;5.63;;;;;;;8.68;65.39;100616.38;5001680;28;20683;-85
2023/04/28 07:10:12;;;;;;;8.93;5.50;;;;;;;8.78;64.92;100609.59;5014607;28;20211;-85
2023/04/28 07:12:38;;;;;;;7.90;5.57;;;;;;;8.87;64.64;100600.25;5014017;28;20202;-85
2023/04/28 07:15:06;;;;;;;6.47;5.37;;;;;;;8.96;64.85;100605.03;4997017;28;20210;-85
2023/04/28 07:17:32;;;;;;;10.10;6.27;;;;;;;9.05;64.48;100600.06;4998815;28;20224;-85
2023/04/28 07:19:59;;;;;;;7.70;6.17;;;;;;;9.16;64.24;100591.44;4995791;28;20206;-85
2023/04/28 07:22:25;;;;;;;11.83;5.67;;;;;;;9.25;63.42;100598.91;4996046;28;20219;-86
2023/04/28 07:24:53;;;;;;;7.57;5.20;;;;;;;9.33;63.36;100595.78;4999591;28;20688;-85
2023/04/28 07:27:20;;;;;;;7.80;5.63;;;;;;;9.42;62.13;100594.38;5009100;28;20223;-85
2023/04/28 07:29:46;;;;;;;7.90;6.80;;;;;;;9.47;61.77;100592.31;4994743;28;20207;-86
2023/04/28 07:32:13;;;;;;;7.30;5.83;;;;;;;9.55;61.97;100593.56;4995459;28;20215;-85
2023/04/28 07:34:39;;;;;;;8.23;5.60;;;;;;;9.65;62.29;100591.22;4995395;28;20211;-85
2023/04/28 07:37:06;;;;;;;8.90;6.00;;;;;;;9.75;61.66;100587.03;4996559;28;20227;-86
2023/04/28 07:39:34;;;;;;;7.40;5.83;;;;;;;9.84;61.10;100588.28;4996100;28;20235;-86
2023/04/28 07:42:02;;;;;;;8.70;6.07;;;;;;;9.90;61.22;100595.88;5005721;28;20218;-85
2023/04/28 07:44:29;;;;;;;6.90;6.17;;;;;;;9.98;61.24;100590.94;4974211;28;20211;-85
2023/04/28 07:46:55;;;;;;;9.10;6.23;;;;;;;10.05;60.85;100589.59;4974696;28;20240;-86
2023/04/28 07:49:22;;;;;;;10.73;6.33;;;;;;;10.09;60.51;100577.81;4978336;28;20583;-86
2023/04/28 07:51:51;;;;;;;8.13;6.43;;;;;;;10.16;60.40;100573.00;4994006;28;20209;-85
2023/04/28 07:54:17;;;;;;;9.37;6.63;;;;;;;10.27;61.13;100573.19;4994393;28;20223;-86
2023/04/28 07:56:43;;;;;;;7.40;6.00;;;;;;;10.37;61.39;100572.53;4995152;28;20231;-86
2023/04/28 07:59:11;;;;;;;8.67;6.40;;;;;;;10.46;60.54;100568.41;4993128;28;20224;-85
2023/04/28 08:01:38;;;;;;;6.83;5.87;;;;;;;10.50;59.11;100564.59;4993676;28;20215;-85
2023/04/28 08:04:04;;;;;;;8.63;5.77;;;;;;;10.54;58.86;100557.28;4994600;28;20571;-85
2023/04/28 08:06:32;;;;;;;8.30;6.67;;;;;;;10.61;59.43;100562.09;4998161;28;20242;-86
2023/04/28 08:08:58;;;;;;;8.47;6.10;;;;;;;10.71;59.11;100554.38;5013548;28;20299;-85
2023/04/28 08:11:25;;;;;;;9.40;6.57;;;;;;;10.83;59.50;100550.88;5006032;28;20206;-85
2023/04/28 08:13:51;;;;;;;7.97;6.33;;;;;;;10.96;59.18;100556.25;5007943;28;20202;-85
2023/04/28 08:16:21;;;;;;;8.17;6.67;;;;;;;11.08;59.13;100550.13;5002475;28;20232;-86
2023/04/28 08:18:47;;;;;;;9.87;6.30;;;;;;;11.19;58.59;100560.06;4995313;28;20229;-85
2023/04/28 08:21:14;;;;;;;10.60;6.27;;;;;;;11.27;58.88;100555.94;4995850;28;20203;-85
2023/04/28 08:23:40;;;;;;;8.53;6.90;;;;;;;11.38;58.19;100556.03;4992692;28;20218;-86
2023/04/28 08:26:07;;;;;;;8.90;6.50;;;;;;;11.45;57.95;100554.69;4993781;28;20241;-86
2023/04/28 08:28:33;;;;;;;7.80;6.53;;;;;;;11.56;57.43;100556.59;4999270;28;20610;-86
2023/04/28 08:31:00;;;;;;;8.57;6.67;;;;;;;11.59;56.95;100558.19;5006210;28;20647;-86
2023/04/28 08:33:28;;;;;;;8.00;6.93;;;;;;;11.62;56.52;100564.19;5006452;28;20210;-86
2023/04/28 08:35:55;;;;;;;7.83;6.83;;;;;;;11.66;56.50;100560.31;5004654;28;20604;-86
2023/04/28 08:38:23;;;;;;;10.33;6.30;;;;;;;11.75;56.37;100558.84;4993650;28;20796;-85
2023/04/28 08:40:50;;;;;;;11.43;6.90;;;;;;;11.82;56.52;100555.66;4993546;28;20206;-85
2023/04/28 08:43:19;;;;;;;7.80;6.30;;;;;;;11.90;55.99;100547.13;5008278;28;20220;-86
2023/04/28 08:45:46;;;;;;;8.37;6.30;;;;;;;11.96;55.63;100545.84;4999879;28;20231;-85
2023/04/28 08:48:19;;;;;;;10.83;6.73;;;;;;;12.03;55.39;100547.94;4994429;28;20210;-85
2023/04/28 08:50:51;;;;;;;9.37;7.10;;;;;;;12.10;55.06;100543.91;4994078;28;20210;-85
2023/04/28 08:53:23;;;;;;;8.33;7.03;;;;;;;12.18;55.62;100543.38;4997003;28;20214;-85
2023/04/28 08:55:54;;;;;;;10.73;7.03;;;;;;;12.25;55.63;100547.28;4992573;28;20286;-86
2023/04/28 08:58:22;;;;;;;9.13;6.57;;;;;;;12.32;55.52;100539.69;4992666;28;20216;-86
2023/04/28 09:00:48;;;;;;;8.40;6.40;;;;;;;12.35;55.02;100532.31;4996074;28;20200;-85
2023/04/28 09:03:15;;;;;;;11.60;6.63;;;;;;;12.41;55.58;100526.50;4991275;28;20226;-87
2023/04/28 09:05:42;;;;;;;8.63;7.13;;;;;;;12.51;55.54;100521.38;5002169;28;20227;-86
2023/04/28 09:08:11;;;;;;;8.23;6.47;;;;;;;12.58;55.23;100516.41;4992836;28;20203;-86
2023/04/28 09:10:37;;;;;;;7.20;6.37;;;;;;;12.64;55.35;100526.66;4995807;28;20239;-85
2023/04/28 09:13:04;;;;;;;10.80;6.50;;;;;;;12.66;54.98;100516.72;4993522;28;20707;-86
2023/04/28 09:15:33;;;;;;;9.13;7.47;;;;;;;12.68;55.20;100512.97;5004798;28;20227;-86
2023/04/28 09:18:00;;;;;;;8.53;6.80;;;;;;;12.77;55.56;100516.75;5008707;28;20701;-85
2023/04/28 09:20:28;;;;;;;8.43;6.50;;;;;;;12.84;55.77;100512.66;4989645;28;20688;-85
2023/04/28 09:22:57;;;;;;;8.90;6.47;;;;;;;12.86;55.09;100514.25;4994404;28;20212;-85
2023/04/28 09:25:26;;;;;;;8.43;6.57;;;;;;;12.91;55.35;100502.34;4996526;28;20227;-85
2023/04/28 09:27:53;;;;;;;8.87;7.63;;;;;;;12.92;54.68;100496.88;4992933;28;20215;-85
2023/04/28 09:30:39;;;;;;;9.80;6.90;;;;;;;12.94;54.89;100497.63;4985415;28;20209;-85
2023/04/28 09:33:07;;;;;;;10.67;7.67;;;;;;;12.96;55.09;100489.50;4993530;28;20657;-86
2023/04/28 09:35:40;;;;;;;12.07;6.90;;;;;;;13.00;55.58;100483.81;4994761;28;20788;-85
2023/04/28 09:38:07;;;;;;;7.80;6.63;;;;;;;13.05;55.05;100487.00;4994627;28;20625;-86
2023/04/28 09:40:49;;;;;;;8.17;6.37;;;;;;;13.10;55.29;100491.97;4993477;28;20209;-85
2023/04/28 09:43:24;;;;;;;9.03;7.17;;;;;;;13.14;55.13;100488.94;4995698;28;20204;-86
2023/04/28 09:45:50;;;;;;;8.67;6.47;;;;;;;13.20;55.51;100487.66;4995282;28;20219;-87
2023/04/28 09:48:17;;;;;;;7.87;6.07;;;;;;;13.29;55.53;100483.41;4992929;28;20227;-86
2023/04/28 09:50:45;;;;;;;7.70;6.83;;;;;;;13.31;55.41;100474.31;4993216;28;20207;-87
2023/04/28 09:53:12;;;;;;;9.53;6.63;;;;;;;13.36;55.54;100477.50;5004155;28;20281;-86
2023/04/28 09:55:45;;;;;;;8.83;6.80;;;;;;;13.40;54.57;100478.97;4998644;28;20250;-86
2023/04/28 09:58:14;;;;;;;8.47;6.17;;;;;;;13.45;55.02;100473.22;4993423;28;20223;-88
2023/04/28 10:00:41;;;;;;;8.37;6.73;;;;;;;13.52;55.39;100471.78;4994565;28;20225;-86
2023/04/28 10:03:09;;;;;;;7.90;6.47;;;;;;;13.59;55.11;100472.19;4999792;28;20709;-86
2023/04/28 10:05:37;;;;;;;10.97;6.03;;;;;;;13.62;54.59;100463.88;4991872;28;20226;-87
2023/04/28 10:08:04;;;;;;;8.30;6.30;;;;;;;13.64;53.92;100473.50;4992540;28;20673;-86
2023/04/28 10:10:31;;;;;;;10.07;6.97;;;;;;;13.69;53.99;100478.50;5008997;28;20211;-86
2023/04/28 10:13:01;;;;;;;9.50;7.07;;;;;;;13.73;54.05;100474.59;5007183;28;20242;-86
2023/04/28 10:15:28;;;;;;;8.70;6.57;;;;;;;13.77;53.87;100479.59;4997160;28;20211;-86
2023/04/28 10:17:55;;;;;;;8.50;6.33;;;;;;;13.83;53.61;100480.91;4998929;28;20210;-86
2023/04/28 10:20:24;;;;;;;9.03;6.43;;;;;;;13.84;54.11;100486.16;5003037;28;20208;-87
2023/04/28 10:22:59;;;;;;;7.57;6.33;;;;;;;13.86;53.52;100481.53;4992751;28;20232;-86
2023/04/28 10:25:27;;;;;;;9.80;6.40;;;;;;;13.88;53.93;100484.94;4999290;28;20207;-86
2023/04/28 10:27:54;;;;;;;8.87;7.03;;;;;;;13.87;54.78;100482.38;4995644;28;20678;-86
2023/04/28 10:30:24;;;;;;;7.80;6.73;;;;;;;13.88;54.35;100484.09;4997578;28;20214;-87
2023/04/28 10:33:23;;;;;;;11.67;7.90;;;;;;;13.82;54.44;100479.22;4994050;28;20217;-86
2023/04/28 10:35:49;;;;;;;10.47;8.03;;;;;;;13.78;54.50;100472.44;4993802;28;20228;-87
2023/04/28 10:38:17;;;;;;;10.07;7.77;;;;;;;13.73;54.45;100467.44;5001542;28;20731;-88
2023/04/28 10:40:45;;;;;;;8.60;7.67;;;;;;;13.72;54.75;100468.41;4997839;28;20210;-86
2023/04/28 10:43:12;;;;;;;11.37;7.50;;;;;;;13.72;54.74;100470.22;5005320;28;20295;-86
2023/04/28 10:46:04;;;;;;;10.30;8.20;;;;;;;13.73;55.07;100464.75;5009062;28;20235;-87
2023/04/28 10:48:58;;;;;;;11.50;8.50;;;;;;;13.74;55.56;100465.59;4992929;28;20208;-87
2023/04/28 10:51:33;;;;;;;9.97;8.20;;;;;;;13.75;55.77;100465.50;5005341;28;20210;-86
2023/04/28 10:54:21;;;;;;;12.50;8.27;;;;;;;13.75;56.25;100454.78;4999743;28;20205;-87
2023/04/28 10:57:19;;;;;;;12.00;8.40;;;;;;;13.79;56.56;100456.22;4998303;28;20228;-86
2023/04/28 10:59:47;;;;;;;12.93;8.70;;;;;;;13.77;56.77;100458.19;4987756;28;20579;-86
2023/04/28 11:02:38;;;;;;;10.00;8.20;;;;;;;13.77;56.20;100455.50;4993646;28;20243;-86
2023/04/28 11:05:15;;;;;;;10.03;8.40;;;;;;;13.74;56.50;100454.91;4999561;28;20223;-86
2023/04/28 11:08:01;;;;;;;9.20;8.30;;;;;;;13.78;56.87;100454.53;4990545;28;20218;-86
2023/04/28 11:11:07;;;;;;;11.17;8.33;;;;;;;13.77;57.65;100452.84;5000936;28;20666;-87
2023/04/28 11:13:34;;;;;;;11.03;8.47;;;;;;;13.80;58.25;100443.69;4989029;28;20203;-86
2023/04/28 11:16:04;;;;;;;13.80;9.33;;;;;;;13.80;58.62;100447.22;5006624;28;20279;-87
2023/04/28 11:18:48;;;;;;;11.73;8.97;;;;;;;13.84;59.34;100435.28;4997742;28;20227;-86
2023/04/28 11:21:17;;;;;;;10.57;9.47;;;;;;;13.88;60.25;100423.38;5004365;28;20208;-87
2023/04/28 11:23:45;;;;;;;14.27;9.33;;;;;;;13.99;61.79;100427.00;4993978;28;20294;-86
2023/04/28 11:26:12;;;;;;;10.33;8.97;;;;;;;14.08;61.46;100426.25;4992692;28;20311;-87
2023/04/28 11:28:47;;;;;;;13.83;8.60;;;;;;;14.13;60.68;100434.78;4997755;28;20223;-86
2023/04/28 11:31:17;;;;;;;9.33;8.43;;;;;;;14.14;60.28;100437.34;4999073;28;20218;-87
2023/04/28 11:33:49;;;;;;;11.53;8.50;;;;;;;14.20;59.58;100438.66;4994142;28;20287;-87